sensor_id;sensor_type;location;lat;lon;timestamp;P1;durP1;ratioP1;P2;durP2;ratioP2
75574;SDS011;64153;48.694;8.130;2022-11-11T09:14:23;10.23;;;6.80;;
75574;SDS011;64153;48.694;8.130;2022-11-11T09:16:50;6.97;;;5.73;;
75574;SDS011;64153;48.694;8.130;2022-11-11T09:19:17;10.13;;;6.93;;
75574;SDS011;64153;48.694;8.130;2022-11-11T09:21:44;9.03;;;6.20;;
75574;SDS011;64153;48.694;8.130;2022-11-11T09:24:10;11.67;;;7.60;;
75574;SDS011;64153;48.694;8.130;2022-11-11T09:26:37;13.03;;;7.60;;
75574;SDS011;64153;48.694;8.130;2022-11-11T09:29:03;12.77;;;7.83;;
75574;SDS011;64153;48.694;8.130;2022-11-11T09:31:30;8.43;;;6.63;;
75574;SDS011;64153;48.694;8.130;2022-11-11T09:33:57;10.83;;;7.60;;
75574;SDS011;64153;48.694;8.130;2022-11-11T09:36:23;8.93;;;6.73;;
75574;SDS011;64153;48.694;8.130;2022-11-11T09:38:50;10.93;;;7.27;;
75574;SDS011;64153;48.694;8.130;2022-11-11T09:41:21;11.23;;;7.47;;
75574;SDS011;64153;48.694;8.130;2022-11-11T09:43:51;12.17;;;9.23;;
75574;SDS011;64153;48.694;8.130;2022-11-11T09:46:37;11.70;;;7.90;;
75574;SDS011;64153;48.694;8.130;2022-11-11T09:49:09;10.20;;;7.43;;
75574;SDS011;64153;48.694;8.130;2022-11-11T09:51:42;12.90;;;8.63;;
75574;SDS011;64153;48.694;8.130;2022-11-11T09:54:10;12.13;;;9.27;;
75574;SDS011;64153;48.694;8.130;2022-11-11T09:56:35;10.90;;;8.33;;
75574;SDS011;64153;48.694;8.130;2022-11-11T09:59:06;13.70;;;8.20;;
75574;SDS011;64153;48.694;8.130;2022-11-11T10:01:33;14.63;;;9.53;;
75574;SDS011;64153;48.694;8.130;2022-11-11T10:04:07;12.47;;;8.90;;
75574;SDS011;64153;48.694;8.130;2022-11-11T10:06:33;11.47;;;8.43;;
75574;SDS011;64153;48.694;8.130;2022-11-11T10:09:00;11.37;;;8.20;;
75574;SDS011;64153;48.694;8.130;2022-11-11T10:11:42;14.47;;;9.40;;
75574;SDS011;64153;48.694;8.130;2022-11-11T10:14:14;9.93;;;7.67;;
75574;SDS011;64153;48.694;8.130;2022-11-11T10:16:46;12.70;;;8.60;;
75574;SDS011;64153;48.694;8.130;2022-11-11T10:19:20;12.70;;;9.40;;
75574;SDS011;64153;48.694;8.130;2022-11-11T10:21:59;9.80;;;8.13;;
75574;SDS011;64153;48.694;8.130;2022-11-11T10:24:27;12.83;;;8.80;;
75574;SDS011;64153;48.694;8.130;2022-11-11T10:26:54;15.27;;;9.80;;
75574;SDS011;64153;48.694;8.130;2022-11-11T10:29:21;10.73;;;9.33;;
75574;SDS011;64153;48.694;8.130;2022-11-11T10:32:21;13.83;;;10.17;;
75574;SDS011;64153;48.694;8.130;2022-11-11T10:34:32;10.50;;;8.33;;
75574;SDS011;64153;48.694;8.130;2022-11-11T10:36:58;11.53;;;9.43;;
75574;SDS011;64153;48.694;8.130;2022-11-11T10:40:01;10.07;;;8.90;;
75574;SDS011;64153;48.694;8.130;2022-11-11T10:42:13;14.20;;;9.50;;
75574;SDS011;64153;48.694;8.130;2022-11-11T10:44:40;11.40;;;8.17;;
75574;SDS011;64153;48.694;8.130;2022-11-11T10:49:46;11.07;;;7.50;;
75574;SDS011;64153;48.694;8.130;2022-11-11T10:52:13;8.97;;;7.50;;
75574;SDS011;64153;48.694;8.130;2022-11-11T10:54:43;11.77;;;8.53;;
75574;SDS011;64153;48.694;8.130;2022-11-11T10:57:16;10.33;;;8.43;;
75574;SDS011;64153;48.694;8.130;2022-11-11T10:59:46;10.63;;;8.57;;
75574;SDS011;64153;48.694;8.130;2022-11-11T11:02:18;10.17;;;8.90;;
75574;SDS011;64153;48.694;8.130;2022-11-11T11:04:47;10.30;;;9.20;;
75574;SDS011;64153;48.694;8.130;2022-11-11T11:07:14;13.63;;;8.57;;
75574;SDS011;64153;48.694;8.130;2022-11-11T11:09:44;10.40;;;8.93;;
75574;SDS011;64153;48.694;8.130;2022-11-11T11:12:33;8.80;;;7.90;;
75574;SDS011;64153;48.694;8.130;2022-11-11T11:15:01;9.33;;;8.17;;
75574;SDS011;64153;48.694;8.130;2022-11-11T11:17:28;10.60;;;7.43;;
75574;SDS011;64153;48.694;8.130;2022-11-11T11:25:11;10.60;;;8.17;;
75574;SDS011;64153;48.694;8.130;2022-11-11T11:27:38;10.77;;;8.20;;
75574;SDS011;64153;48.694;8.130;2022-11-11T11:30:09;8.00;;;7.20;;
75574;SDS011;64153;48.694;8.130;2022-11-11T11:32:56;8.80;;;7.93;;
75574;SDS011;64153;48.694;8.130;2022-11-11T11:35:30;7.93;;;7.13;;
75574;SDS011;64153;48.694;8.130;2022-11-11T11:37:57;11.73;;;8.77;;
75574;SDS011;64153;48.694;8.130;2022-11-11T11:40:23;14.40;;;10.63;;
75574;SDS011;64153;48.694;8.130;2022-11-11T11:45:34;13.47;;;11.10;;
75574;SDS011;64153;48.694;8.130;2022-11-11T11:48:06;13.63;;;11.50;;
75574;SDS011;64153;48.694;8.130;2022-11-11T11:50:41;17.53;;;12.57;;
75574;SDS011;64153;48.694;8.130;2022-11-11T11:53:17;16.23;;;13.07;;
75574;SDS011;64153;48.694;8.130;2022-11-11T11:55:45;13.33;;;11.93;;
75574;SDS011;64153;48.694;8.130;2022-11-11T12:01:00;12.40;;;11.10;;
75574;SDS011;64153;48.694;8.130;2022-11-11T12:03:45;15.07;;;11.80;;
75574;SDS011;64153;48.694;8.130;2022-11-11T12:06:28;12.17;;;10.80;;
75574;SDS011;64153;48.694;8.130;2022-11-11T12:09:02;11.63;;;10.20;;
75574;SDS011;64153;48.694;8.130;2022-11-11T12:11:45;12.00;;;9.80;;
75574;SDS011;64153;48.694;8.130;2022-11-11T12:17:00;12.23;;;10.27;;
75574;SDS011;64153;48.694;8.130;2022-11-11T12:19:34;14.10;;;10.30;;
75574;SDS011;64153;48.694;8.130;2022-11-11T12:25:16;12.70;;;9.53;;
75574;SDS011;64153;48.694;8.130;2022-11-11T12:28:01;10.47;;;8.10;;
75574;SDS011;64153;48.694;8.130;2022-11-11T12:30:28;9.13;;;8.23;;
